createdAt,value
2022-11-29T00:03:22.619Z,4.32
2022-11-29T00:08:24.058Z,4.55
2022-11-29T00:13:25.416Z,4.10
2022-11-29T00:18:26.787Z,4.45
2022-11-29T00:23:28.211Z,4.60
2022-11-29T00:28:29.578Z,4.47
2022-11-29T00:33:30.991Z,4.35
2022-11-29T00:38:32.359Z,4.43
2022-11-29T00:43:33.764Z,5.07
2022-11-29T00:48:35.235Z,4.60
2022-11-29T00:53:36.675Z,5.00
2022-11-29T00:58:38.113Z,5.03
2022-11-29T01:03:39.638Z,5.25
2022-11-29T01:08:41.049Z,5.05
2022-11-29T01:13:42.502Z,5.13
2022-11-29T01:18:43.885Z,5.10
2022-11-29T01:23:45.671Z,5.10
2022-11-29T01:28:47.815Z,5.28
2022-11-29T01:33:49.248Z,5.47
2022-11-29T01:38:50.617Z,6.20
2022-11-29T01:44:13.006Z,5.97
2022-11-29T01:49:16.707Z,5.70
2022-11-29T01:54:18.119Z,5.35
2022-11-29T01:59:23.631Z,5.97
2022-11-29T02:04:25.006Z,5.88
2022-11-29T02:09:26.428Z,5.75
2022-11-29T02:14:49.409Z,5.55
2022-11-29T02:20:12.471Z,5.55
2022-11-29T02:25:54.857Z,5.82
2022-11-29T02:31:11.526Z,5.50
2022-11-29T02:36:22.112Z,5.85
2022-11-29T02:41:45.147Z,6.00
2022-11-29T02:46:55.855Z,5.50
2022-11-29T02:52:19.359Z,5.53
2022-11-29T02:57:29.594Z,6.75
2022-11-29T03:03:09.019Z,6.10
2022-11-29T03:08:48.292Z,5.75
2022-11-29T03:14:11.404Z,6.53
2022-11-29T03:19:53.858Z,6.22
2022-11-29T03:25:07.828Z,6.50
2022-11-29T03:30:11.261Z,6.43
2022-11-29T03:35:46.298Z,5.88
2022-11-29T03:41:04.042Z,6.20
2022-11-29T03:46:09.318Z,5.85
2022-11-29T03:51:36.543Z,6.18
2022-11-29T03:56:39.542Z,6.22
2022-11-29T04:02:20.591Z,6.45
2022-11-29T04:07:31.257Z,7.03
2022-11-29T04:12:57.256Z,6.40
2022-11-29T04:18:32.055Z,6.30
2022-11-29T04:23:52.627Z,6.73
2022-11-29T04:29:14.777Z,6.47
2022-11-29T04:34:24.980Z,6.15
2022-11-29T04:39:56.371Z,5.57
2022-11-29T04:45:15.973Z,6.00
2022-11-29T04:50:31.023Z,6.05
2022-11-29T04:55:41.273Z,5.90
2022-11-29T05:00:49.709Z,5.93
2022-11-29T05:05:59.303Z,5.40
2022-11-29T05:11:00.508Z,5.65
2022-11-29T05:16:31.559Z,5.53
2022-11-29T05:21:43.111Z,6.00
2022-11-29T05:27:10.227Z,5.70
2022-11-29T05:32:34.791Z,5.70
2022-11-29T05:38:01.204Z,5.93
2022-11-29T05:43:20.740Z,6.07
2022-11-29T05:48:29.811Z,4.95
2022-11-29T05:53:36.491Z,5.15
2022-11-29T05:58:48.104Z,6.13
2022-11-29T06:04:04.610Z,5.70
2022-11-29T06:09:26.116Z,5.50
2022-11-29T06:14:45.850Z,5.43
2022-11-29T06:20:19.006Z,5.55
2022-11-29T06:25:47.211Z,5.53
2022-11-29T06:31:09.497Z,5.10
2022-11-29T06:36:19.875Z,5.40
2022-11-29T06:41:22.807Z,5.80
2022-11-29T06:46:29.798Z,5.00
2022-11-29T06:52:22.220Z,5.10
2022-11-29T06:57:57.568Z,4.97
2022-11-29T07:03:06.618Z,5.13
2022-11-29T07:08:18.559Z,4.90
2022-11-29T07:13:20.272Z,5.25
2022-11-29T07:18:27.959Z,4.80
2022-11-29T07:23:38.405Z,5.15
2022-11-29T07:28:54.959Z,5.32
2022-11-29T07:34:21.028Z,4.93
2022-11-29T07:39:32.580Z,5.20
2022-11-29T07:44:58.763Z,4.88
2022-11-29T07:50:00.133Z,4.65
2022-11-29T07:55:01.995Z,4.57
2022-11-29T08:00:04.075Z,4.30
2022-11-29T08:05:05.772Z,4.32
2022-11-29T08:10:11.892Z,4.55
2022-11-29T08:15:13.472Z,4.75
2022-11-29T08:20:15.416Z,4.68
2022-11-29T08:25:16.823Z,4.10
2022-11-29T08:30:18.751Z,4.28
2022-11-29T08:35:21.424Z,4.57
2022-11-29T08:40:24.198Z,4.30
2022-11-29T08:45:25.839Z,4.43
2022-11-29T08:50:27.455Z,4.35
2022-11-29T08:55:32.349Z,4.18
2022-11-29T09:00:34.098Z,4.53
2022-11-29T09:05:36.325Z,4.45
2022-11-29T09:10:39.446Z,4.60
2022-11-29T09:15:42.005Z,4.65
2022-11-29T09:20:43.973Z,4.38
2022-11-29T09:25:48.712Z,4.63
2022-11-29T09:30:50.522Z,4.60
2022-11-29T09:35:51.992Z,3.97
2022-11-29T09:40:55.379Z,4.32
2022-11-29T09:46:26.457Z,4.68
2022-11-29T09:51:44.551Z,4.25
2022-11-29T09:56:47.263Z,4.38
2022-11-29T10:01:54.631Z,4.20
2022-11-29T10:07:21.365Z,4.13
2022-11-29T10:12:45.754Z,3.88
2022-11-29T10:17:49.557Z,3.47
2022-11-29T10:23:02.707Z,4.00
2022-11-29T10:28:04.822Z,4.20
2022-11-29T10:33:14.494Z,4.30
2022-11-29T10:38:30.700Z,4.03
2022-11-29T10:43:32.533Z,4.13
2022-11-29T10:48:33.935Z,4.35
2022-11-29T10:53:38.475Z,4.28
2022-11-29T10:59:03.146Z,4.03
2022-11-29T11:04:07.185Z,3.93
2022-11-29T11:09:20.436Z,4.28
2022-11-29T11:14:32.125Z,4.10
2022-11-29T11:19:34.095Z,3.72
2022-11-29T11:24:40.443Z,4.43
2022-11-29T11:29:42.949Z,3.95
2022-11-29T11:34:54.924Z,4.15
2022-11-29T11:39:58.110Z,4.20
2022-11-29T11:44:59.693Z,4.30
2022-11-29T11:50:03.807Z,4.25
2022-11-29T11:55:16.633Z,4.32
2022-11-29T12:01:02.972Z,4.85
2022-11-29T12:06:24.540Z,4.05
2022-11-29T12:11:25.945Z,4.15
2022-11-29T12:16:33.396Z,4.70
2022-11-29T12:21:37.476Z,4.20
2022-11-29T12:32:18.927Z,4.47
2022-11-29T12:37:35.435Z,4.38
2022-11-29T12:42:41.900Z,4.40
2022-11-29T12:48:08.940Z,4.00
2022-11-29T12:53:13.267Z,4.15
2022-11-29T12:58:41.324Z,4.45
2022-11-29T13:04:28.466Z,4.32
2022-11-29T13:09:47.983Z,4.50
2022-11-29T13:15:01.926Z,4.60
2022-11-29T13:20:41.530Z,5.18
2022-11-29T13:25:44.003Z,4.45
2022-11-29T13:30:45.375Z,5.00
2022-11-29T13:36:12.453Z,4.47
2022-11-29T13:41:26.619Z,4.78
2022-11-29T13:46:49.923Z,5.45
2022-11-29T13:52:04.028Z,4.80
2022-11-29T13:57:06.675Z,5.35
2022-11-29T14:02:34.515Z,5.93
2022-11-29T14:07:36.400Z,6.47
2022-11-29T14:12:40.741Z,6.47
2022-11-29T14:17:55.982Z,6.50
2022-11-29T14:23:07.631Z,6.55
2022-11-29T14:28:11.963Z,6.75
2022-11-29T14:33:13.171Z,6.55
2022-11-29T14:38:19.327Z,6.50
2022-11-29T14:43:29.145Z,6.72
2022-11-29T14:48:30.610Z,6.18
2022-11-29T14:53:33.737Z,6.93
2022-11-29T14:58:35.107Z,6.30
2022-11-29T15:03:38.943Z,6.30
2022-11-29T15:08:48.236Z,7.57
2022-11-29T15:14:19.206Z,6.30
2022-11-29T15:19:57.593Z,6.65
2022-11-29T15:25:12.784Z,6.20
2022-11-29T15:30:18.948Z,6.18
2022-11-29T15:35:20.431Z,6.22
2022-11-29T15:40:23.429Z,6.32
2022-11-29T15:45:35.118Z,6.82
2022-11-29T15:50:36.529Z,6.85
2022-11-29T15:55:37.899Z,7.10
2022-11-29T16:00:39.340Z,7.35
2022-11-29T16:05:40.792Z,7.00
2022-11-29T16:10:49.152Z,7.35
2022-11-29T16:16:06.825Z,7.13
2022-11-29T16:21:25.312Z,6.82
2022-11-29T16:26:30.147Z,7.07
2022-11-29T16:31:36.062Z,7.70
2022-11-29T16:36:37.531Z,6.85
2022-11-29T16:41:38.930Z,8.07
2022-11-29T16:46:40.323Z,7.55
2022-11-29T16:51:47.867Z,7.43
2022-11-29T16:56:52.496Z,7.40
2022-11-29T17:01:53.924Z,8.10
2022-11-29T17:06:55.695Z,8.02
2022-11-29T17:12:01.529Z,7.35
2022-11-29T17:22:04.265Z,8.02
2022-11-29T17:27:05.705Z,8.55
2022-11-29T17:32:07.135Z,8.38
2022-11-29T17:37:08.556Z,8.75
2022-11-29T17:42:11.947Z,7.75
2022-11-29T17:47:13.344Z,8.82
2022-11-29T17:52:14.719Z,8.90
2022-11-29T17:57:16.365Z,8.60
2022-11-29T18:02:17.791Z,9.15
2022-11-29T18:07:19.317Z,8.73
2022-11-29T18:12:22.359Z,8.57
2022-11-29T18:17:23.732Z,9.05
2022-11-29T18:22:25.097Z,8.85
2022-11-29T18:27:26.459Z,9.27
2022-11-29T18:32:27.856Z,8.45
2022-11-29T18:38:05.104Z,9.07
2022-11-29T18:42:50.943Z,8.70
2022-11-29T18:47:52.303Z,9.18
2022-11-29T18:52:55.540Z,9.00
2022-11-29T18:57:56.943Z,9.18
2022-11-29T19:02:58.352Z,8.30
2022-11-29T19:07:59.869Z,10.00
2022-11-29T19:13:01.302Z,9.00
2022-11-29T19:18:02.673Z,9.63
2022-11-29T19:23:04.045Z,9.52
2022-11-29T19:28:09.475Z,8.98
2022-11-29T19:33:15.196Z,8.63
2022-11-29T19:38:16.598Z,9.48
2022-11-29T19:43:18.117Z,9.77
2022-11-29T19:48:19.541Z,9.50
2022-11-29T19:53:20.911Z,8.60
2022-11-29T19:58:22.398Z,8.65
2022-11-29T20:03:23.796Z,9.65
2022-11-29T20:08:25.191Z,9.70
2022-11-29T20:13:26.632Z,10.05
2022-11-29T20:18:32.387Z,10.43
2022-11-29T20:23:33.861Z,10.55
2022-11-29T20:28:35.657Z,10.07
2022-11-29T20:33:37.032Z,10.15
2022-11-29T20:38:45.639Z,10.18
2022-11-29T20:43:57.886Z,9.98
2022-11-29T20:49:05.993Z,11.10
2022-11-29T20:54:10.404Z,10.15
2022-11-29T20:59:11.763Z,10.00
2022-11-29T21:04:13.220Z,10.95
2022-11-29T21:09:14.659Z,10.30
2022-11-29T21:14:16.233Z,9.75
2022-11-29T21:19:19.492Z,10.23
2022-11-29T21:24:42.592Z,9.85
2022-11-29T21:29:44.067Z,10.27
2022-11-29T21:34:45.746Z,9.85
2022-11-29T21:39:47.677Z,10.07
2022-11-29T21:44:49.257Z,10.25
2022-11-29T21:49:52.617Z,9.13
2022-11-29T21:54:55.088Z,10.40
2022-11-29T21:59:56.756Z,9.73
2022-11-29T22:04:58.132Z,9.90
2022-11-29T22:10:09.936Z,10.50
2022-11-29T22:15:19.094Z,9.30
2022-11-29T22:20:23.006Z,9.00
2022-11-29T22:25:24.391Z,9.27
2022-11-29T22:30:25.799Z,9.88
2022-11-29T22:35:27.175Z,9.05
2022-11-29T22:40:28.543Z,10.23
2022-11-29T22:45:29.914Z,9.27
2022-11-29T22:50:31.278Z,8.85
2022-11-29T22:55:32.644Z,8.63
2022-11-29T23:00:35.858Z,9.10
2022-11-29T23:05:37.288Z,8.95
2022-11-29T23:10:38.667Z,8.93
2022-11-29T23:15:40.067Z,9.30
2022-11-29T23:20:41.440Z,9.65
2022-11-29T23:25:49.427Z,8.73
2022-11-29T23:30:51.089Z,9.15
2022-11-29T23:36:01.872Z,8.82
2022-11-29T23:41:03.749Z,8.25
2022-11-29T23:46:09.661Z,9.05
2022-11-29T23:56:13.896Z,9.32
